sensor_id;sensor_type;location;lat;lon;timestamp;temperature;humidity
16511;DHT22;8368;48.772;8.754;2022-08-05T00:02:01;19.40;99.90
16511;DHT22;8368;48.772;8.754;2022-08-05T00:04:26;19.40;99.90
16511;DHT22;8368;48.772;8.754;2022-08-05T00:06:52;19.30;99.90
16511;DHT22;8368;48.772;8.754;2022-08-05T00:09:18;19.30;99.90
16511;DHT22;8368;48.772;8.754;2022-08-05T00:11:44;19.40;99.90
16511;DHT22;8368;48.772;8.754;2022-08-05T00:14:09;19.40;99.90
16511;DHT22;8368;48.772;8.754;2022-08-05T00:16:35;19.30;99.90
16511;DHT22;8368;48.772;8.754;2022-08-05T00:19:01;19.40;99.90
16511;DHT22;8368;48.772;8.754;2022-08-05T00:21:26;19.50;99.90
16511;DHT22;8368;48.772;8.754;2022-08-05T00:23:52;20.10;99.90
16511;DHT22;8368;48.772;8.754;2022-08-05T00:26:18;20.70;99.90
16511;DHT22;8368;48.772;8.754;2022-08-05T00:28:44;21.40;99.90
16511;DHT22;8368;48.772;8.754;2022-08-05T00:31:10;21.80;99.90
16511;DHT22;8368;48.772;8.754;2022-08-05T00:33:36;21.80;99.90
16511;DHT22;8368;48.772;8.754;2022-08-05T00:36:02;21.90;99.90
16511;DHT22;8368;48.772;8.754;2022-08-05T00:38:27;21.80;99.90
16511;DHT22;8368;48.772;8.754;2022-08-05T00:40:55;22.00;99.90
16511;DHT22;8368;48.772;8.754;2022-08-05T00:43:22;22.60;99.90
16511;DHT22;8368;48.772;8.754;2022-08-05T00:45:48;23.00;99.90
16511;DHT22;8368;48.772;8.754;2022-08-05T00:48:19;23.40;99.90
16511;DHT22;8368;48.772;8.754;2022-08-05T00:50:48;23.70;99.90
16511;DHT22;8368;48.772;8.754;2022-08-05T00:53:15;23.80;99.90
16511;DHT22;8368;48.772;8.754;2022-08-05T00:55:42;24.00;99.90
16511;DHT22;8368;48.772;8.754;2022-08-05T00:58:08;23.90;99.90
16511;DHT22;8368;48.772;8.754;2022-08-05T01:00:34;24.00;99.90
16511;DHT22;8368;48.772;8.754;2022-08-05T01:02:59;24.00;99.90
16511;DHT22;8368;48.772;8.754;2022-08-05T01:05:25;23.90;99.90
16511;DHT22;8368;48.772;8.754;2022-08-05T01:07:51;23.80;99.90
16511;DHT22;8368;48.772;8.754;2022-08-05T01:10:21;23.70;99.90
16511;DHT22;8368;48.772;8.754;2022-08-05T01:12:54;23.70;99.90
16511;DHT22;8368;48.772;8.754;2022-08-05T01:15:22;23.70;99.90
16511;DHT22;8368;48.772;8.754;2022-08-05T01:17:59;23.80;99.90
16511;DHT22;8368;48.772;8.754;2022-08-05T01:28:57;23.80;99.90
16511;DHT22;8368;48.772;8.754;2022-08-05T01:31:47;23.70;99.90
16511;DHT22;8368;48.772;8.754;2022-08-05T01:34:37;23.60;99.90
16511;DHT22;8368;48.772;8.754;2022-08-05T01:37:09;23.60;99.90
16511;DHT22;8368;48.772;8.754;2022-08-05T01:39:37;23.40;99.90
16511;DHT22;8368;48.772;8.754;2022-08-05T01:42:05;23.40;99.90
16511;DHT22;8368;48.772;8.754;2022-08-05T01:44:33;23.30;99.90
16511;DHT22;8368;48.772;8.754;2022-08-05T01:47:01;23.20;99.90
16511;DHT22;8368;48.772;8.754;2022-08-05T01:49:27;23.10;99.90
16511;DHT22;8368;48.772;8.754;2022-08-05T01:52:00;23.00;99.90
16511;DHT22;8368;48.772;8.754;2022-08-05T01:54:44;23.00;99.90
16511;DHT22;8368;48.772;8.754;2022-08-05T01:57:11;22.90;99.90
16511;DHT22;8368;48.772;8.754;2022-08-05T01:59:39;22.80;99.90
16511;DHT22;8368;48.772;8.754;2022-08-05T02:02:07;22.80;99.90
16511;DHT22;8368;48.772;8.754;2022-08-05T02:04:36;22.80;99.90
16511;DHT22;8368;48.772;8.754;2022-08-05T02:07:03;22.80;99.90
16511;DHT22;8368;48.772;8.754;2022-08-05T02:09:29;22.80;99.90
16511;DHT22;8368;48.772;8.754;2022-08-05T02:12:24;22.80;99.90
16511;DHT22;8368;48.772;8.754;2022-08-05T02:15:14;22.80;99.90
16511;DHT22;8368;48.772;8.754;2022-08-05T02:18:01;22.80;99.90
16511;DHT22;8368;48.772;8.754;2022-08-05T02:20:32;22.70;99.90
16511;DHT22;8368;48.772;8.754;2022-08-05T02:23:03;22.70;99.90
16511;DHT22;8368;48.772;8.754;2022-08-05T02:25:33;22.60;99.90
16511;DHT22;8368;48.772;8.754;2022-08-05T02:28:01;22.50;99.90
16511;DHT22;8368;48.772;8.754;2022-08-05T02:30:34;22.50;99.90
16511;DHT22;8368;48.772;8.754;2022-08-05T02:33:04;22.40;99.90
16511;DHT22;8368;48.772;8.754;2022-08-05T02:35:33;22.30;99.90
16511;DHT22;8368;48.772;8.754;2022-08-05T02:38:01;22.20;99.90
16511;DHT22;8368;48.772;8.754;2022-08-05T02:40:27;22.10;99.90
16511;DHT22;8368;48.772;8.754;2022-08-05T02:42:54;22.10;99.90
16511;DHT22;8368;48.772;8.754;2022-08-05T02:45:22;22.10;99.90
16511;DHT22;8368;48.772;8.754;2022-08-05T02:47:50;22.10;99.90
16511;DHT22;8368;48.772;8.754;2022-08-05T02:50:16;22.30;99.90
16511;DHT22;8368;48.772;8.754;2022-08-05T02:52:44;22.30;99.90
16511;DHT22;8368;48.772;8.754;2022-08-05T02:55:11;22.30;99.90
16511;DHT22;8368;48.772;8.754;2022-08-05T02:57:38;22.30;99.90
16511;DHT22;8368;48.772;8.754;2022-08-05T03:00:05;22.50;99.90
16511;DHT22;8368;48.772;8.754;2022-08-05T03:02:35;22.40;99.90
16511;DHT22;8368;48.772;8.754;2022-08-05T03:05:02;22.50;99.90
16511;DHT22;8368;48.772;8.754;2022-08-05T03:07:30;22.40;99.90
16511;DHT22;8368;48.772;8.754;2022-08-05T03:09:56;22.40;99.90
16511;DHT22;8368;48.772;8.754;2022-08-05T03:12:34;22.40;99.90
16511;DHT22;8368;48.772;8.754;2022-08-05T03:15:01;22.30;99.90
16511;DHT22;8368;48.772;8.754;2022-08-05T03:17:27;22.30;99.90
16511;DHT22;8368;48.772;8.754;2022-08-05T03:19:52;22.30;99.90
16511;DHT22;8368;48.772;8.754;2022-08-05T03:22:18;22.20;99.90
16511;DHT22;8368;48.772;8.754;2022-08-05T03:24:45;22.20;99.90
16511;DHT22;8368;48.772;8.754;2022-08-05T03:27:11;22.10;99.90
16511;DHT22;8368;48.772;8.754;2022-08-05T03:29:37;22.00;99.90
16511;DHT22;8368;48.772;8.754;2022-08-05T03:32:06;21.80;99.90
16511;DHT22;8368;48.772;8.754;2022-08-05T03:34:32;21.70;99.90
16511;DHT22;8368;48.772;8.754;2022-08-05T03:36:58;21.50;99.90
16511;DHT22;8368;48.772;8.754;2022-08-05T03:39:24;21.40;99.90
16511;DHT22;8368;48.772;8.754;2022-08-05T03:41:50;21.20;99.90
16511;DHT22;8368;48.772;8.754;2022-08-05T03:44:15;21.00;99.90
16511;DHT22;8368;48.772;8.754;2022-08-05T03:46:41;20.90;99.90
16511;DHT22;8368;48.772;8.754;2022-08-05T03:49:06;20.80;99.90
16511;DHT22;8368;48.772;8.754;2022-08-05T03:51:37;20.60;99.90
16511;DHT22;8368;48.772;8.754;2022-08-05T03:54:08;20.60;99.90
16511;DHT22;8368;48.772;8.754;2022-08-05T03:56:41;20.50;99.90
16511;DHT22;8368;48.772;8.754;2022-08-05T03:59:18;20.40;99.90
16511;DHT22;8368;48.772;8.754;2022-08-05T04:01:47;20.30;99.90
16511;DHT22;8368;48.772;8.754;2022-08-05T04:04:14;20.20;99.90
16511;DHT22;8368;48.772;8.754;2022-08-05T04:06:40;20.10;99.90
16511;DHT22;8368;48.772;8.754;2022-08-05T04:09:07;20.20;99.90
16511;DHT22;8368;48.772;8.754;2022-08-05T04:11:33;20.50;99.90
16511;DHT22;8368;48.772;8.754;2022-08-05T04:14:00;20.70;99.90
16511;DHT22;8368;48.772;8.754;2022-08-05T04:16:27;20.90;99.90
16511;DHT22;8368;48.772;8.754;2022-08-05T04:18:53;21.00;99.90
16511;DHT22;8368;48.772;8.754;2022-08-05T04:21:19;21.20;99.90
16511;DHT22;8368;48.772;8.754;2022-08-05T04:23:44;21.30;99.90
16511;DHT22;8368;48.772;8.754;2022-08-05T04:26:11;21.10;99.90
16511;DHT22;8368;48.772;8.754;2022-08-05T04:28:37;21.20;99.90
16511;DHT22;8368;48.772;8.754;2022-08-05T04:31:03;21.10;99.90
16511;DHT22;8368;48.772;8.754;2022-08-05T04:33:29;21.00;99.90
16511;DHT22;8368;48.772;8.754;2022-08-05T04:35:55;20.90;99.90
16511;DHT22;8368;48.772;8.754;2022-08-05T04:38:20;20.90;99.90
16511;DHT22;8368;48.772;8.754;2022-08-05T04:40:46;20.80;99.90
16511;DHT22;8368;48.772;8.754;2022-08-05T04:43:12;20.90;99.90
16511;DHT22;8368;48.772;8.754;2022-08-05T04:45:37;21.10;99.90
16511;DHT22;8368;48.772;8.754;2022-08-05T04:48:10;21.30;99.90
16511;DHT22;8368;48.772;8.754;2022-08-05T04:50:46;21.40;99.90
16511;DHT22;8368;48.772;8.754;2022-08-05T04:53:13;21.70;99.90
16511;DHT22;8368;48.772;8.754;2022-08-05T04:55:39;21.80;99.90
16511;DHT22;8368;48.772;8.754;2022-08-05T04:58:08;21.90;99.90
16511;DHT22;8368;48.772;8.754;2022-08-05T05:00:36;22.00;99.90
16511;DHT22;8368;48.772;8.754;2022-08-05T05:03:02;22.00;99.90
16511;DHT22;8368;48.772;8.754;2022-08-05T05:05:29;22.10;99.90
16511;DHT22;8368;48.772;8.754;2022-08-05T05:08:15;22.00;99.90
16511;DHT22;8368;48.772;8.754;2022-08-05T05:10:42;21.60;99.90
16511;DHT22;8368;48.772;8.754;2022-08-05T05:13:10;21.40;99.90
16511;DHT22;8368;48.772;8.754;2022-08-05T05:15:36;21.20;99.90
16511;DHT22;8368;48.772;8.754;2022-08-05T05:18:01;21.10;99.90
16511;DHT22;8368;48.772;8.754;2022-08-05T05:20:27;21.00;99.90
16511;DHT22;8368;48.772;8.754;2022-08-05T05:22:52;21.00;99.90
16511;DHT22;8368;48.772;8.754;2022-08-05T05:25:18;21.10;99.90
16511;DHT22;8368;48.772;8.754;2022-08-05T05:27:44;21.10;99.90
16511;DHT22;8368;48.772;8.754;2022-08-05T05:30:10;21.10;99.90
16511;DHT22;8368;48.772;8.754;2022-08-05T05:32:36;21.20;99.90
16511;DHT22;8368;48.772;8.754;2022-08-05T05:35:01;21.30;99.90
16511;DHT22;8368;48.772;8.754;2022-08-05T05:37:27;21.40;99.90
16511;DHT22;8368;48.772;8.754;2022-08-05T05:39:52;21.50;99.90
16511;DHT22;8368;48.772;8.754;2022-08-05T05:42:18;21.60;99.90
16511;DHT22;8368;48.772;8.754;2022-08-05T05:44:43;21.70;99.90
16511;DHT22;8368;48.772;8.754;2022-08-05T05:47:09;21.80;99.90
16511;DHT22;8368;48.772;8.754;2022-08-05T05:49:34;21.90;99.90
16511;DHT22;8368;48.772;8.754;2022-08-05T05:52:00;21.90;99.90
16511;DHT22;8368;48.772;8.754;2022-08-05T05:54:26;22.10;99.90
16511;DHT22;8368;48.772;8.754;2022-08-05T05:56:51;22.20;99.90
16511;DHT22;8368;48.772;8.754;2022-08-05T05:59:17;22.30;99.90
16511;DHT22;8368;48.772;8.754;2022-08-05T06:01:42;22.40;99.90
16511;DHT22;8368;48.772;8.754;2022-08-05T06:04:10;22.50;99.90
16511;DHT22;8368;48.772;8.754;2022-08-05T06:06:35;22.60;99.90
16511;DHT22;8368;48.772;8.754;2022-08-05T06:09:05;22.70;99.90
16511;DHT22;8368;48.772;8.754;2022-08-05T06:11:31;22.80;99.90
16511;DHT22;8368;48.772;8.754;2022-08-05T06:13:58;23.00;99.90
16511;DHT22;8368;48.772;8.754;2022-08-05T06:16:23;23.10;99.90
16511;DHT22;8368;48.772;8.754;2022-08-05T06:18:49;23.20;99.90
16511;DHT22;8368;48.772;8.754;2022-08-05T06:21:16;23.30;99.90
16511;DHT22;8368;48.772;8.754;2022-08-05T06:23:42;23.30;99.90
16511;DHT22;8368;48.772;8.754;2022-08-05T06:26:07;23.40;99.90
16511;DHT22;8368;48.772;8.754;2022-08-05T06:28:33;23.40;99.90
16511;DHT22;8368;48.772;8.754;2022-08-05T06:30:58;23.50;99.90
16511;DHT22;8368;48.772;8.754;2022-08-05T06:33:24;23.40;99.90
16511;DHT22;8368;48.772;8.754;2022-08-05T06:35:50;23.10;99.90
16511;DHT22;8368;48.772;8.754;2022-08-05T06:38:16;23.00;99.90
16511;DHT22;8368;48.772;8.754;2022-08-05T06:40:42;22.90;99.90
16511;DHT22;8368;48.772;8.754;2022-08-05T06:43:08;22.70;99.90
16511;DHT22;8368;48.772;8.754;2022-08-05T06:45:34;22.70;99.90
16511;DHT22;8368;48.772;8.754;2022-08-05T06:48:00;22.70;99.90
16511;DHT22;8368;48.772;8.754;2022-08-05T06:50:25;22.70;99.90
16511;DHT22;8368;48.772;8.754;2022-08-05T06:52:51;22.80;99.90
16511;DHT22;8368;48.772;8.754;2022-08-05T06:55:17;22.90;99.90
16511;DHT22;8368;48.772;8.754;2022-08-05T06:57:43;22.90;99.90
16511;DHT22;8368;48.772;8.754;2022-08-05T07:00:09;23.00;99.90
16511;DHT22;8368;48.772;8.754;2022-08-05T07:02:41;23.00;99.90
16511;DHT22;8368;48.772;8.754;2022-08-05T07:05:07;23.00;99.90
16511;DHT22;8368;48.772;8.754;2022-08-05T07:07:33;23.00;99.90
16511;DHT22;8368;48.772;8.754;2022-08-05T07:09:58;23.00;99.90
16511;DHT22;8368;48.772;8.754;2022-08-05T07:12:24;23.10;99.90
16511;DHT22;8368;48.772;8.754;2022-08-05T07:15:08;23.20;99.90
16511;DHT22;8368;48.772;8.754;2022-08-05T07:17:52;23.30;99.90
16511;DHT22;8368;48.772;8.754;2022-08-05T07:20:18;23.40;99.90
16511;DHT22;8368;48.772;8.754;2022-08-05T07:22:43;23.50;99.90
16511;DHT22;8368;48.772;8.754;2022-08-05T07:25:09;23.70;99.90
16511;DHT22;8368;48.772;8.754;2022-08-05T07:27:35;23.90;99.90
16511;DHT22;8368;48.772;8.754;2022-08-05T07:30:00;24.00;99.90
16511;DHT22;8368;48.772;8.754;2022-08-05T07:32:26;23.80;99.90
16511;DHT22;8368;48.772;8.754;2022-08-05T07:34:51;23.60;99.90
16511;DHT22;8368;48.772;8.754;2022-08-05T07:37:18;23.50;99.90
16511;DHT22;8368;48.772;8.754;2022-08-05T07:39:43;23.50;99.90
16511;DHT22;8368;48.772;8.754;2022-08-05T07:42:09;23.50;99.90
16511;DHT22;8368;48.772;8.754;2022-08-05T07:44:34;23.50;99.90
16511;DHT22;8368;48.772;8.754;2022-08-05T07:47:00;23.60;99.90
16511;DHT22;8368;48.772;8.754;2022-08-05T07:49:25;23.70;99.90
16511;DHT22;8368;48.772;8.754;2022-08-05T07:51:51;23.80;99.90
16511;DHT22;8368;48.772;8.754;2022-08-05T07:54:16;23.90;99.90
16511;DHT22;8368;48.772;8.754;2022-08-05T07:56:42;23.90;99.90
16511;DHT22;8368;48.772;8.754;2022-08-05T07:59:07;24.00;99.90
16511;DHT22;8368;48.772;8.754;2022-08-05T08:01:33;24.10;99.90
16511;DHT22;8368;48.772;8.754;2022-08-05T08:03:58;24.00;99.90
16511;DHT22;8368;48.772;8.754;2022-08-05T08:06:24;24.20;99.90
16511;DHT22;8368;48.772;8.754;2022-08-05T08:08:49;24.30;99.90
16511;DHT22;8368;48.772;8.754;2022-08-05T08:11:15;24.40;99.90
16511;DHT22;8368;48.772;8.754;2022-08-05T08:13:40;24.40;99.90
16511;DHT22;8368;48.772;8.754;2022-08-05T08:16:07;24.50;99.90
16511;DHT22;8368;48.772;8.754;2022-08-05T08:18:32;24.50;99.90
16511;DHT22;8368;48.772;8.754;2022-08-05T08:20:58;24.60;99.90
16511;DHT22;8368;48.772;8.754;2022-08-05T08:23:23;24.60;99.90
16511;DHT22;8368;48.772;8.754;2022-08-05T08:25:49;24.70;99.90
16511;DHT22;8368;48.772;8.754;2022-08-05T08:28:14;24.70;99.90
16511;DHT22;8368;48.772;8.754;2022-08-05T08:30:40;24.70;99.90
16511;DHT22;8368;48.772;8.754;2022-08-05T08:33:07;24.60;99.90
16511;DHT22;8368;48.772;8.754;2022-08-05T08:35:33;24.60;99.90
16511;DHT22;8368;48.772;8.754;2022-08-05T08:37:59;24.60;99.90
16511;DHT22;8368;48.772;8.754;2022-08-05T08:40:24;24.50;99.90
16511;DHT22;8368;48.772;8.754;2022-08-05T08:42:51;24.50;99.90
16511;DHT22;8368;48.772;8.754;2022-08-05T08:45:20;24.60;99.90
16511;DHT22;8368;48.772;8.754;2022-08-05T08:47:49;24.60;99.90
16511;DHT22;8368;48.772;8.754;2022-08-05T08:50:16;24.70;99.90
16511;DHT22;8368;48.772;8.754;2022-08-05T08:52:48;24.80;99.90
16511;DHT22;8368;48.772;8.754;2022-08-05T08:55:14;24.90;99.90
16511;DHT22;8368;48.772;8.754;2022-08-05T08:57:40;25.00;99.90
16511;DHT22;8368;48.772;8.754;2022-08-05T09:00:06;25.10;99.90
16511;DHT22;8368;48.772;8.754;2022-08-05T09:02:58;25.10;99.90
16511;DHT22;8368;48.772;8.754;2022-08-05T09:05:25;25.20;99.90
16511;DHT22;8368;48.772;8.754;2022-08-05T09:07:51;25.20;99.90
16511;DHT22;8368;48.772;8.754;2022-08-05T09:10:18;25.30;99.90
16511;DHT22;8368;48.772;8.754;2022-08-05T09:12:43;25.30;99.90
16511;DHT22;8368;48.772;8.754;2022-08-05T09:15:09;25.30;99.90
16511;DHT22;8368;48.772;8.754;2022-08-05T09:17:35;25.40;99.90
16511;DHT22;8368;48.772;8.754;2022-08-05T09:20:01;25.50;99.90
16511;DHT22;8368;48.772;8.754;2022-08-05T09:22:28;25.50;99.90
16511;DHT22;8368;48.772;8.754;2022-08-05T09:25:02;25.60;99.90
16511;DHT22;8368;48.772;8.754;2022-08-05T09:27:35;25.60;99.90
16511;DHT22;8368;48.772;8.754;2022-08-05T09:30:03;25.50;99.90
16511;DHT22;8368;48.772;8.754;2022-08-05T09:32:38;25.60;99.90
16511;DHT22;8368;48.772;8.754;2022-08-05T09:35:15;25.70;99.90
16511;DHT22;8368;48.772;8.754;2022-08-05T09:37:51;25.80;99.90
16511;DHT22;8368;48.772;8.754;2022-08-05T09:40:33;25.90;99.90
16511;DHT22;8368;48.772;8.754;2022-08-05T09:43:01;26.00;99.90
16511;DHT22;8368;48.772;8.754;2022-08-05T09:45:42;26.10;99.90
16511;DHT22;8368;48.772;8.754;2022-08-05T09:48:29;26.10;99.90
16511;DHT22;8368;48.772;8.754;2022-08-05T09:50:58;26.10;99.90
16511;DHT22;8368;48.772;8.754;2022-08-05T09:53:24;26.00;99.90
16511;DHT22;8368;48.772;8.754;2022-08-05T09:55:52;26.00;99.90
16511;DHT22;8368;48.772;8.754;2022-08-05T09:58:18;26.00;99.90
16511;DHT22;8368;48.772;8.754;2022-08-05T10:01:01;26.00;99.90
16511;DHT22;8368;48.772;8.754;2022-08-05T10:03:28;26.10;99.90
16511;DHT22;8368;48.772;8.754;2022-08-05T10:06:09;26.20;99.90
16511;DHT22;8368;48.772;8.754;2022-08-05T10:08:38;26.40;99.90
16511;DHT22;8368;48.772;8.754;2022-08-05T10:11:12;26.60;99.90
16511;DHT22;8368;48.772;8.754;2022-08-05T10:13:38;26.80;99.90
16511;DHT22;8368;48.772;8.754;2022-08-05T10:19:18;27.20;99.90
16511;DHT22;8368;48.772;8.754;2022-08-05T10:21:44;27.30;99.90
16511;DHT22;8368;48.772;8.754;2022-08-05T10:24:11;27.40;99.90
16511;DHT22;8368;48.772;8.754;2022-08-05T10:26:41;27.40;99.90
16511;DHT22;8368;48.772;8.754;2022-08-05T10:29:08;27.30;99.90
16511;DHT22;8368;48.772;8.754;2022-08-05T10:31:35;27.20;99.90
16511;DHT22;8368;48.772;8.754;2022-08-05T10:34:01;27.20;99.90
16511;DHT22;8368;48.772;8.754;2022-08-05T10:36:27;27.20;99.90
16511;DHT22;8368;48.772;8.754;2022-08-05T10:38:59;27.40;99.90
16511;DHT22;8368;48.772;8.754;2022-08-05T10:41:42;27.60;99.90
16511;DHT22;8368;48.772;8.754;2022-08-05T10:44:12;27.60;99.90
16511;DHT22;8368;48.772;8.754;2022-08-05T10:46:53;27.70;99.90
16511;DHT22;8368;48.772;8.754;2022-08-05T10:49:22;27.80;99.90
16511;DHT22;8368;48.772;8.754;2022-08-05T10:51:53;27.80;99.90
16511;DHT22;8368;48.772;8.754;2022-08-05T10:54:23;27.90;99.90
16511;DHT22;8368;48.772;8.754;2022-08-05T10:56:53;28.00;99.90
16511;DHT22;8368;48.772;8.754;2022-08-05T10:59:28;28.10;99.90
16511;DHT22;8368;48.772;8.754;2022-08-05T11:02:12;28.20;99.90
16511;DHT22;8368;48.772;8.754;2022-08-05T11:04:46;28.30;99.90
16511;DHT22;8368;48.772;8.754;2022-08-05T11:07:12;28.50;99.90
16511;DHT22;8368;48.772;8.754;2022-08-05T11:09:48;28.60;99.90
16511;DHT22;8368;48.772;8.754;2022-08-05T11:15:28;28.90;99.90
16511;DHT22;8368;48.772;8.754;2022-08-05T11:18:26;29.00;99.90
16511;DHT22;8368;48.772;8.754;2022-08-05T11:20:53;29.20;99.90
16511;DHT22;8368;48.772;8.754;2022-08-05T11:23:36;29.20;99.90
16511;DHT22;8368;48.772;8.754;2022-08-05T11:28:51;29.00;99.90
16511;DHT22;8368;48.772;8.754;2022-08-05T11:36:13;29.20;99.90
16511;DHT22;8368;48.772;8.754;2022-08-05T11:41:14;29.20;99.90
16511;DHT22;8368;48.772;8.754;2022-08-05T11:43:52;29.10;99.90
16511;DHT22;8368;48.772;8.754;2022-08-05T11:46:34;29.00;99.90
16511;DHT22;8368;48.772;8.754;2022-08-05T11:49:00;28.80;99.90
16511;DHT22;8368;48.772;8.754;2022-08-05T11:51:28;28.80;99.90
16511;DHT22;8368;48.772;8.754;2022-08-05T11:53:55;28.70;99.90
16511;DHT22;8368;48.772;8.754;2022-08-05T11:56:21;28.80;99.90
16511;DHT22;8368;48.772;8.754;2022-08-05T11:58:48;28.80;99.90
16511;DHT22;8368;48.772;8.754;2022-08-05T12:01:19;28.70;99.90
16511;DHT22;8368;48.772;8.754;2022-08-05T12:03:51;28.50;99.90
16511;DHT22;8368;48.772;8.754;2022-08-05T12:06:19;28.40;99.90
16511;DHT22;8368;48.772;8.754;2022-08-05T12:09:03;28.30;99.90
16511;DHT22;8368;48.772;8.754;2022-08-05T12:11:30;28.30;99.90
16511;DHT22;8368;48.772;8.754;2022-08-05T12:14:03;28.40;99.90
16511;DHT22;8368;48.772;8.754;2022-08-05T12:16:35;28.60;99.90
16511;DHT22;8368;48.772;8.754;2022-08-05T12:19:01;28.70;99.90
16511;DHT22;8368;48.772;8.754;2022-08-05T12:21:34;28.80;99.90
16511;DHT22;8368;48.772;8.754;2022-08-05T12:26:49;28.90;99.90
16511;DHT22;8368;48.772;8.754;2022-08-05T12:29:19;28.80;99.90
16511;DHT22;8368;48.772;8.754;2022-08-05T12:31:50;28.70;99.90
16511;DHT22;8368;48.772;8.754;2022-08-05T12:34:17;28.80;99.90
16511;DHT22;8368;48.772;8.754;2022-08-05T12:36:44;28.90;99.90
16511;DHT22;8368;48.772;8.754;2022-08-05T12:39:11;29.00;99.90
16511;DHT22;8368;48.772;8.754;2022-08-05T12:41:38;29.30;99.90
16511;DHT22;8368;48.772;8.754;2022-08-05T12:44:13;29.60;99.90
16511;DHT22;8368;48.772;8.754;2022-08-05T12:46:41;29.80;99.90
16511;DHT22;8368;48.772;8.754;2022-08-05T12:49:09;29.90;99.90
16511;DHT22;8368;48.772;8.754;2022-08-05T12:54:28;30.40;99.90
16511;DHT22;8368;48.772;8.754;2022-08-05T12:59:21;30.10;99.90
16511;DHT22;8368;48.772;8.754;2022-08-05T13:02:05;29.70;99.90
16511;DHT22;8368;48.772;8.754;2022-08-05T13:04:33;29.50;99.90
16511;DHT22;8368;48.772;8.754;2022-08-05T13:07:01;29.30;99.90
16511;DHT22;8368;48.772;8.754;2022-08-05T13:09:28;29.10;99.90
16511;DHT22;8368;48.772;8.754;2022-08-05T13:14:28;29.10;99.90
16511;DHT22;8368;48.772;8.754;2022-08-05T13:16:56;29.10;99.90
16511;DHT22;8368;48.772;8.754;2022-08-05T13:19:27;29.10;99.90
16511;DHT22;8368;48.772;8.754;2022-08-05T13:21:54;29.10;99.90
16511;DHT22;8368;48.772;8.754;2022-08-05T13:24:21;29.20;99.90
16511;DHT22;8368;48.772;8.754;2022-08-05T13:26:49;29.10;99.90
16511;DHT22;8368;48.772;8.754;2022-08-05T13:29:16;29.00;99.90
16511;DHT22;8368;48.772;8.754;2022-08-05T13:31:42;28.90;99.90
16511;DHT22;8368;48.772;8.754;2022-08-05T13:34:08;28.80;99.90
16511;DHT22;8368;48.772;8.754;2022-08-05T13:36:34;28.90;99.90
16511;DHT22;8368;48.772;8.754;2022-08-05T13:39:01;28.80;99.90
16511;DHT22;8368;48.772;8.754;2022-08-05T13:41:27;29.00;99.90
16511;DHT22;8368;48.772;8.754;2022-08-05T13:43:52;28.90;99.90
16511;DHT22;8368;48.772;8.754;2022-08-05T13:46:18;28.90;99.90
16511;DHT22;8368;48.772;8.754;2022-08-05T13:48:44;28.90;99.90
16511;DHT22;8368;48.772;8.754;2022-08-05T13:51:11;28.90;99.90
16511;DHT22;8368;48.772;8.754;2022-08-05T13:53:41;28.80;99.90
16511;DHT22;8368;48.772;8.754;2022-08-05T13:56:07;29.10;99.90
16511;DHT22;8368;48.772;8.754;2022-08-05T13:58:34;30.00;99.90
16511;DHT22;8368;48.772;8.754;2022-08-05T14:00:59;30.50;99.90
16511;DHT22;8368;48.772;8.754;2022-08-05T14:03:25;31.00;99.90
16511;DHT22;8368;48.772;8.754;2022-08-05T14:05:53;31.60;99.90
16511;DHT22;8368;48.772;8.754;2022-08-05T14:08:19;32.00;99.90
16511;DHT22;8368;48.772;8.754;2022-08-05T14:10:45;32.40;99.90
16511;DHT22;8368;48.772;8.754;2022-08-05T14:13:11;32.40;99.90
16511;DHT22;8368;48.772;8.754;2022-08-05T14:15:37;32.40;99.90
16511;DHT22;8368;48.772;8.754;2022-08-05T14:18:03;32.30;99.90
16511;DHT22;8368;48.772;8.754;2022-08-05T14:20:29;32.00;99.90
16511;DHT22;8368;48.772;8.754;2022-08-05T14:22:56;31.40;99.90
16511;DHT22;8368;48.772;8.754;2022-08-05T14:25:21;30.40;99.90
16511;DHT22;8368;48.772;8.754;2022-08-05T14:27:47;29.70;99.90
16511;DHT22;8368;48.772;8.754;2022-08-05T14:30:14;29.20;99.90
16511;DHT22;8368;48.772;8.754;2022-08-05T14:32:40;29.00;99.90
16511;DHT22;8368;48.772;8.754;2022-08-05T14:35:07;28.90;99.90
16511;DHT22;8368;48.772;8.754;2022-08-05T14:37:33;28.90;99.90
16511;DHT22;8368;48.772;8.754;2022-08-05T14:39:59;29.00;99.90
16511;DHT22;8368;48.772;8.754;2022-08-05T14:42:24;29.00;99.90
16511;DHT22;8368;48.772;8.754;2022-08-05T14:44:50;28.80;99.90
16511;DHT22;8368;48.772;8.754;2022-08-05T14:47:16;28.80;99.90
16511;DHT22;8368;48.772;8.754;2022-08-05T14:49:42;28.60;99.90
16511;DHT22;8368;48.772;8.754;2022-08-05T14:52:08;28.70;99.90
16511;DHT22;8368;48.772;8.754;2022-08-05T14:54:34;28.80;99.90
16511;DHT22;8368;48.772;8.754;2022-08-05T14:56:59;28.60;99.90
16511;DHT22;8368;48.772;8.754;2022-08-05T14:59:26;28.40;99.90
16511;DHT22;8368;48.772;8.754;2022-08-05T15:01:52;28.20;99.90
16511;DHT22;8368;48.772;8.754;2022-08-05T15:04:18;28.20;99.90
16511;DHT22;8368;48.772;8.754;2022-08-05T15:06:44;28.30;99.90
16511;DHT22;8368;48.772;8.754;2022-08-05T15:09:17;28.10;99.90
16511;DHT22;8368;48.772;8.754;2022-08-05T15:11:43;27.90;99.90
16511;DHT22;8368;48.772;8.754;2022-08-05T15:14:09;27.80;99.90
16511;DHT22;8368;48.772;8.754;2022-08-05T15:16:34;27.70;99.90
16511;DHT22;8368;48.772;8.754;2022-08-05T15:19:00;27.60;99.90
16511;DHT22;8368;48.772;8.754;2022-08-05T15:21:25;27.50;99.90
16511;DHT22;8368;48.772;8.754;2022-08-05T15:23:51;27.50;99.90
16511;DHT22;8368;48.772;8.754;2022-08-05T15:26:17;27.50;99.90
16511;DHT22;8368;48.772;8.754;2022-08-05T15:28:43;27.40;99.90
16511;DHT22;8368;48.772;8.754;2022-08-05T15:31:09;27.20;99.90
16511;DHT22;8368;48.772;8.754;2022-08-05T15:33:35;27.10;99.90
16511;DHT22;8368;48.772;8.754;2022-08-05T15:36:02;27.10;99.90
16511;DHT22;8368;48.772;8.754;2022-08-05T15:38:28;27.10;99.90
16511;DHT22;8368;48.772;8.754;2022-08-05T15:40:54;26.90;99.90
16511;DHT22;8368;48.772;8.754;2022-08-05T15:43:20;26.80;99.90
16511;DHT22;8368;48.772;8.754;2022-08-05T15:45:45;26.70;99.90
16511;DHT22;8368;48.772;8.754;2022-08-05T15:48:12;26.70;99.90
16511;DHT22;8368;48.772;8.754;2022-08-05T15:50:37;26.40;99.90
16511;DHT22;8368;48.772;8.754;2022-08-05T15:53:03;26.40;99.90
16511;DHT22;8368;48.772;8.754;2022-08-05T15:55:29;26.20;99.90
16511;DHT22;8368;48.772;8.754;2022-08-05T15:57:54;26.10;99.90
16511;DHT22;8368;48.772;8.754;2022-08-05T16:00:20;26.10;99.90
16511;DHT22;8368;48.772;8.754;2022-08-05T16:02:45;26.00;99.90
16511;DHT22;8368;48.772;8.754;2022-08-05T16:05:11;26.00;99.90
16511;DHT22;8368;48.772;8.754;2022-08-05T16:07:37;25.80;99.90
16511;DHT22;8368;48.772;8.754;2022-08-05T16:10:03;25.60;99.90
16511;DHT22;8368;48.772;8.754;2022-08-05T16:12:29;25.50;99.90
16511;DHT22;8368;48.772;8.754;2022-08-05T16:14:55;25.50;99.90
16511;DHT22;8368;48.772;8.754;2022-08-05T16:17:20;25.40;99.90
16511;DHT22;8368;48.772;8.754;2022-08-05T16:19:47;25.30;99.90
16511;DHT22;8368;48.772;8.754;2022-08-05T16:22:13;25.30;99.90
16511;DHT22;8368;48.772;8.754;2022-08-05T16:24:39;25.20;99.90
16511;DHT22;8368;48.772;8.754;2022-08-05T16:27:05;25.20;99.90